Weather at Mayfield Farm Airstrip

Public forecast

Using degrees Celsius for public forecast. Weather courtesy of forecast.io.

Closest aviation weather report (METAR) to Mayfield Farm Airstrip

Closest report is Glasgow Prestwick Airport, 10.5 nm (19.5 km) SE. Retrieved 2022/08/19 14:20 UTC (15 minutes ago):

EGPK 191420Z 22016KT 190V250 9999 FEW028 19/10 Q1009

Closest aviation forecast (TAF) to Mayfield Farm Airstrip

Closest forecast is Glasgow Prestwick Airport, 10.5 nm (19.5 km) SE. Retrieved 2022/08/19 12:00 UTC (3 hours ago):

TAF EGPK 191056Z 1912/2012 22014KT 9999 SCT035 PROB40 TEMPO 1912/1916 23017G27KT 6000 SHRA BECMG 1917/1920 22004KT BECMG 2002/2005 21018G28KT TEMPO 2002/2010 6000 RA SHRA BKN014 PROB40 TEMPO 2004/2009 3000 +SHRA BKN009CB BECMG 2007/2010 25012KT TEMPO 2010/2012 25015G25KT